KLNN/LNN METAR and TAF weather

Enter ICAO airport designator
Station Type Date Time Source
KLNN METAR 2019/10/20 18:55 UTC NOAA

KLNN 201855Z AUTO 32011G16KT 10SM SCT060 16/08 A2989 RMK AO1 T01620084


Station Type Date Time Source
KLNN Decoded METAR 2019/10/20 18:55 UTC NOAA

Willoughby, OH, United States (KLNN) 41-41N 081-23W
Oct 20, 2019 - 02:55 PM EDT / 2019.10.20 1855 UTC
Wind: from the NW (320 degrees) at 13 MPH (11 KT) gusting to 18 MPH (16 KT):0
Visibility: 10 mile(s):0
Sky conditions: partly cloudy
Temperature: 61.2 F (16.2 C)
Dew Point: 47.1 F (8.4 C)
Relative Humidity: 59%
Pressure (altimeter): 29.89 in. Hg (1012 hPa)
ob: KLNN 201855Z AUTO 32011G16KT 10SM SCT060 16/08 A2989 RMK AO1 T01620084
cycle: 19

Station Type Date Time Source
KLNN TAF UTC NOAA

Error!

Example: see airport list